sensor_id;sensor_type;location;lat;lon;timestamp;pressure;altitude;pressure_sealevel;temperature;humidity
73171;BME280;61381;50.118;19.962;2023-05-11T00:04:25;98673.69;;;8.36;74.53
73171;BME280;61381;50.118;19.962;2023-05-11T00:09:25;98681.72;;;8.42;74.80
73171;BME280;61381;50.118;19.962;2023-05-11T00:14:29;98672.63;;;8.27;75.35
73171;BME280;61381;50.118;19.962;2023-05-11T00:19:30;98677.41;;;8.15;76.75
73171;BME280;61381;50.118;19.962;2023-05-11T00:24:31;98667.22;;;8.07;77.30
73171;BME280;61381;50.118;19.962;2023-05-11T00:29:33;98672.03;;;8.04;77.39
73171;BME280;61381;50.118;19.962;2023-05-11T00:34:34;98664.03;;;7.99;77.35
73171;BME280;61381;50.118;19.962;2023-05-11T00:39:36;98665.09;;;7.98;77.54
73171;BME280;61381;50.118;19.962;2023-05-11T00:44:38;98671.22;;;7.99;77.62
73171;BME280;61381;50.118;19.962;2023-05-11T00:49:40;98665.59;;;7.95;77.96
73171;BME280;61381;50.118;19.962;2023-05-11T00:54:41;98658.69;;;7.99;77.93
73171;BME280;61381;50.118;19.962;2023-05-11T00:59:44;98652.75;;;7.87;78.68
73171;BME280;61381;50.118;19.962;2023-05-11T01:04:45;98650.91;;;7.88;79.09
73171;BME280;61381;50.118;19.962;2023-05-11T01:09:54;98666.09;;;7.82;79.45
73171;BME280;61381;50.118;19.962;2023-05-11T01:15:05;98654.38;;;7.83;79.93
73171;BME280;61381;50.118;19.962;2023-05-11T01:20:11;98667.66;;;7.78;80.46
73171;BME280;61381;50.118;19.962;2023-05-11T01:25:26;98662.31;;;7.73;81.44
73171;BME280;61381;50.118;19.962;2023-05-11T01:30:35;98666.88;;;7.72;81.54
73171;BME280;61381;50.118;19.962;2023-05-11T01:35:40;98665.50;;;7.70;81.78
73171;BME280;61381;50.118;19.962;2023-05-11T01:40:43;98662.00;;;7.59;82.27
73171;BME280;61381;50.118;19.962;2023-05-11T01:45:46;98663.81;;;7.48;83.78
73171;BME280;61381;50.118;19.962;2023-05-11T01:50:49;98667.00;;;7.40;84.37
73171;BME280;61381;50.118;19.962;2023-05-11T01:55:51;98661.59;;;7.29;85.64
73171;BME280;61381;50.118;19.962;2023-05-11T02:00:57;98670.09;;;7.26;85.73
73171;BME280;61381;50.118;19.962;2023-05-11T02:05:59;98660.69;;;7.13;86.23
73171;BME280;61381;50.118;19.962;2023-05-11T02:11:01;98665.47;;;7.06;86.80
73171;BME280;61381;50.118;19.962;2023-05-11T02:16:06;98665.16;;;7.03;86.97
73171;BME280;61381;50.118;19.962;2023-05-11T02:21:09;98671.03;;;7.05;86.69
73171;BME280;61381;50.118;19.962;2023-05-11T02:26:12;98672.94;;;7.09;86.75
73171;BME280;61381;50.118;19.962;2023-05-11T02:31:18;98667.56;;;7.04;86.74
73171;BME280;61381;50.118;19.962;2023-05-11T02:36:21;98669.94;;;7.01;87.34
73171;BME280;61381;50.118;19.962;2023-05-11T02:41:25;98674.75;;;7.04;87.07
73171;BME280;61381;50.118;19.962;2023-05-11T02:46:32;98683.75;;;6.97;88.75
73171;BME280;61381;50.118;19.962;2023-05-11T02:51:36;98672.75;;;6.84;89.68
73171;BME280;61381;50.118;19.962;2023-05-11T02:56:38;98672.50;;;6.85;90.06
73171;BME280;61381;50.118;19.962;2023-05-11T03:01:42;98675.91;;;6.81;90.34
73171;BME280;61381;50.118;19.962;2023-05-11T03:06:44;98673.59;;;6.89;90.01
73171;BME280;61381;50.118;19.962;2023-05-11T03:11:45;98664.28;;;6.92;90.24
73171;BME280;61381;50.118;19.962;2023-05-11T03:16:48;98678.66;;;6.91;90.04
73171;BME280;61381;50.118;19.962;2023-05-11T03:21:51;98675.75;;;6.92;90.47
73171;BME280;61381;50.118;19.962;2023-05-11T03:26:53;98678.72;;;7.01;90.22
73171;BME280;61381;50.118;19.962;2023-05-11T03:31:56;98677.66;;;6.97;90.70
73171;BME280;61381;50.118;19.962;2023-05-11T03:36:58;98688.06;;;7.04;89.76
73171;BME280;61381;50.118;19.962;2023-05-11T03:42:00;98680.34;;;7.02;90.67
73171;BME280;61381;50.118;19.962;2023-05-11T03:47:04;98685.13;;;7.00;91.08
73171;BME280;61381;50.118;19.962;2023-05-11T03:52:06;98685.06;;;6.95;92.16
73171;BME280;61381;50.118;19.962;2023-05-11T03:57:07;98687.19;;;6.93;92.43
73171;BME280;61381;50.118;19.962;2023-05-11T04:02:10;98687.22;;;6.98;92.65
73171;BME280;61381;50.118;19.962;2023-05-11T04:07:11;98697.97;;;7.56;88.34
73171;BME280;61381;50.118;19.962;2023-05-11T04:12:12;98713.16;;;10.28;73.51
73171;BME280;61381;50.118;19.962;2023-05-11T04:17:14;98719.91;;;11.83;64.36
73171;BME280;61381;50.118;19.962;2023-05-11T04:22:15;98717.81;;;12.80;59.58
73171;BME280;61381;50.118;19.962;2023-05-11T04:27:16;98730.53;;;14.74;53.97
73171;BME280;61381;50.118;19.962;2023-05-11T04:32:19;98738.38;;;15.61;49.56
73171;BME280;61381;50.118;19.962;2023-05-11T04:37:20;98742.38;;;15.09;50.03
73171;BME280;61381;50.118;19.962;2023-05-11T04:42:21;98734.00;;;14.38;52.24
73171;BME280;61381;50.118;19.962;2023-05-11T04:47:23;98732.44;;;14.73;51.43
73171;BME280;61381;50.118;19.962;2023-05-11T04:52:24;98730.84;;;14.72;51.27
73171;BME280;61381;50.118;19.962;2023-05-11T04:57:25;98741.16;;;14.20;52.94
73171;BME280;61381;50.118;19.962;2023-05-11T05:02:28;98742.53;;;15.36;50.54
73171;BME280;61381;50.118;19.962;2023-05-11T05:07:29;98752.50;;;15.58;49.56
73171;BME280;61381;50.118;19.962;2023-05-11T05:12:30;98751.06;;;15.60;49.70
73171;BME280;61381;50.118;19.962;2023-05-11T05:17:32;98758.31;;;14.97;50.60
73171;BME280;61381;50.118;19.962;2023-05-11T05:22:33;98751.50;;;15.54;49.90
73171;BME280;61381;50.118;19.962;2023-05-11T05:27:35;98750.97;;;14.89;51.46
73171;BME280;61381;50.118;19.962;2023-05-11T05:32:37;98756.19;;;15.70;49.47
73171;BME280;61381;50.118;19.962;2023-05-11T05:37:38;98750.66;;;16.16;48.35
73171;BME280;61381;50.118;19.962;2023-05-11T05:42:39;98752.63;;;16.76;46.79
73171;BME280;61381;50.118;19.962;2023-05-11T05:47:41;98763.81;;;19.19;41.29
73171;BME280;61381;50.118;19.962;2023-05-11T05:52:42;98759.81;;;16.90;46.74
73171;BME280;61381;50.118;19.962;2023-05-11T05:57:43;98762.94;;;17.36;45.93
73171;BME280;61381;50.118;19.962;2023-05-11T06:02:46;98762.78;;;15.56;51.29
73171;BME280;61381;50.118;19.962;2023-05-11T06:07:47;98760.56;;;16.38;49.32
73171;BME280;61381;50.118;19.962;2023-05-11T06:12:48;98767.31;;;18.05;44.38
73171;BME280;61381;50.118;19.962;2023-05-11T06:17:51;98772.53;;;17.72;45.11
73171;BME280;61381;50.118;19.962;2023-05-11T06:22:52;98768.88;;;18.15;45.28
73171;BME280;61381;50.118;19.962;2023-05-11T06:27:53;98788.13;;;19.61;41.39
73171;BME280;61381;50.118;19.962;2023-05-11T06:32:57;98782.88;;;19.77;41.33
73171;BME280;61381;50.118;19.962;2023-05-11T06:37:58;98786.06;;;19.91;40.50
73171;BME280;61381;50.118;19.962;2023-05-11T06:42:59;98784.19;;;20.70;38.56
73171;BME280;61381;50.118;19.962;2023-05-11T06:48:01;98784.97;;;19.71;40.27
73171;BME280;61381;50.118;19.962;2023-05-11T06:53:02;98786.75;;;19.55;40.58
73171;BME280;61381;50.118;19.962;2023-05-11T06:58:03;98787.56;;;21.35;37.70
73171;BME280;61381;50.118;19.962;2023-05-11T07:03:06;98772.91;;;20.83;38.70
73171;BME280;61381;50.118;19.962;2023-05-11T07:08:07;98775.16;;;19.33;40.91
73171;BME280;61381;50.118;19.962;2023-05-11T07:13:08;98786.22;;;21.13;37.89
73171;BME280;61381;50.118;19.962;2023-05-11T07:18:10;98778.00;;;22.73;36.62
73171;BME280;61381;50.118;19.962;2023-05-11T07:23:11;98787.34;;;23.54;35.22
73171;BME280;61381;50.118;19.962;2023-05-11T07:28:12;98770.69;;;21.01;40.21
73171;BME280;61381;50.118;19.962;2023-05-11T07:33:14;98779.47;;;21.67;39.81
73171;BME280;61381;50.118;19.962;2023-05-11T07:38:15;98773.03;;;19.85;42.42
73171;BME280;61381;50.118;19.962;2023-05-11T07:43:16;98770.19;;;20.83;41.31
73171;BME280;61381;50.118;19.962;2023-05-11T07:48:19;98770.16;;;20.43;42.33
73171;BME280;61381;50.118;19.962;2023-05-11T07:53:20;98778.38;;;19.60;44.11
73171;BME280;61381;50.118;19.962;2023-05-11T07:58:21;98783.31;;;20.28;41.51
73171;BME280;61381;50.118;19.962;2023-05-11T08:03:23;98768.78;;;19.75;42.64
73171;BME280;61381;50.118;19.962;2023-05-11T08:08:25;98764.50;;;20.23;44.33
73171;BME280;61381;50.118;19.962;2023-05-11T08:13:26;98765.41;;;20.15;41.83
73171;BME280;61381;50.118;19.962;2023-05-11T08:18:28;98766.47;;;19.52;44.09
73171;BME280;61381;50.118;19.962;2023-05-11T08:23:29;98762.66;;;18.86;45.78
73171;BME280;61381;50.118;19.962;2023-05-11T08:28:30;98760.59;;;19.50;43.90
73171;BME280;61381;50.118;19.962;2023-05-11T08:33:32;98757.44;;;19.60;44.09
73171;BME280;61381;50.118;19.962;2023-05-11T08:38:34;98762.84;;;19.94;42.53
73171;BME280;61381;50.118;19.962;2023-05-11T08:43:35;98751.47;;;19.80;43.59
73171;BME280;61381;50.118;19.962;2023-05-11T08:48:37;98752.09;;;19.39;44.00
73171;BME280;61381;50.118;19.962;2023-05-11T08:53:38;98741.09;;;19.36;44.49
73171;BME280;61381;50.118;19.962;2023-05-11T08:58:40;98737.69;;;19.27;44.02
73171;BME280;61381;50.118;19.962;2023-05-11T09:03:44;98743.16;;;19.39;43.08
73171;BME280;61381;50.118;19.962;2023-05-11T09:08:46;98736.53;;;19.98;40.92
73171;BME280;61381;50.118;19.962;2023-05-11T09:13:48;98753.50;;;20.07;38.27
73171;BME280;61381;50.118;19.962;2023-05-11T09:18:51;98732.56;;;20.61;40.11
73171;BME280;61381;50.118;19.962;2023-05-11T09:23:54;98742.88;;;20.14;37.41
73171;BME280;61381;50.118;19.962;2023-05-11T09:28:57;98732.91;;;19.94;40.73
73171;BME280;61381;50.118;19.962;2023-05-11T09:34:09;98739.63;;;19.51;40.99
73171;BME280;61381;50.118;19.962;2023-05-11T09:39:11;98717.75;;;19.22;42.01
73171;BME280;61381;50.118;19.962;2023-05-11T09:44:14;98730.19;;;20.06;40.82
73171;BME280;61381;50.118;19.962;2023-05-11T09:49:17;98731.53;;;19.75;39.60
73171;BME280;61381;50.118;19.962;2023-05-11T09:54:20;98734.03;;;19.81;38.61
73171;BME280;61381;50.118;19.962;2023-05-11T09:59:36;98718.09;;;19.21;42.08
73171;BME280;61381;50.118;19.962;2023-05-11T10:04:38;98707.72;;;19.60;40.77
73171;BME280;61381;50.118;19.962;2023-05-11T10:09:40;98700.56;;;19.43;41.04
73171;BME280;61381;50.118;19.962;2023-05-11T10:14:41;98698.00;;;19.71;40.66
73171;BME280;61381;50.118;19.962;2023-05-11T10:19:45;98682.56;;;19.38;40.73
73171;BME280;61381;50.118;19.962;2023-05-11T10:24:46;98689.16;;;19.37;41.85
73171;BME280;61381;50.118;19.962;2023-05-11T10:29:48;98690.16;;;18.87;42.12
73171;BME280;61381;50.118;19.962;2023-05-11T10:34:51;98674.94;;;19.07;40.79
73171;BME280;61381;50.118;19.962;2023-05-11T10:39:52;98681.44;;;20.01;36.89
73171;BME280;61381;50.118;19.962;2023-05-11T10:45:09;98682.31;;;20.71;37.42
73171;BME280;61381;50.118;19.962;2023-05-11T10:50:24;98674.41;;;20.53;36.88
73171;BME280;61381;50.118;19.962;2023-05-11T10:55:41;98665.81;;;19.98;36.21
73171;BME280;61381;50.118;19.962;2023-05-11T11:01:19;98658.88;;;20.54;33.53
73171;BME280;61381;50.118;19.962;2023-05-11T11:06:25;98665.09;;;22.10;32.18
73171;BME280;61381;50.118;19.962;2023-05-11T11:11:34;98666.94;;;21.23;33.46
73171;BME280;61381;50.118;19.962;2023-05-11T11:16:36;98679.34;;;22.19;32.31
73171;BME280;61381;50.118;19.962;2023-05-11T11:21:41;98671.78;;;20.69;32.44
73171;BME280;61381;50.118;19.962;2023-05-11T11:26:46;98657.69;;;21.11;32.69
73171;BME280;61381;50.118;19.962;2023-05-11T11:31:47;98662.72;;;21.57;31.24
73171;BME280;61381;50.118;19.962;2023-05-11T11:37:06;98661.94;;;22.27;31.37
73171;BME280;61381;50.118;19.962;2023-05-11T11:42:09;98661.41;;;22.38;31.94
73171;BME280;61381;50.118;19.962;2023-05-11T11:47:11;98660.41;;;21.11;32.55
73171;BME280;61381;50.118;19.962;2023-05-11T11:52:31;98655.78;;;21.28;31.91
73171;BME280;61381;50.118;19.962;2023-05-11T11:57:42;98659.44;;;20.88;34.05
73171;BME280;61381;50.118;19.962;2023-05-11T12:02:44;98666.84;;;21.19;31.74
73171;BME280;61381;50.118;19.962;2023-05-11T12:07:48;98640.63;;;21.14;31.88
73171;BME280;61381;50.118;19.962;2023-05-11T12:12:50;98650.28;;;21.91;31.02
73171;BME280;61381;50.118;19.962;2023-05-11T12:17:51;98649.63;;;21.98;30.21
73171;BME280;61381;50.118;19.962;2023-05-11T12:22:54;98650.84;;;21.33;32.81
73171;BME280;61381;50.118;19.962;2023-05-11T12:27:56;98644.34;;;21.06;30.55
73171;BME280;61381;50.118;19.962;2023-05-11T12:32:57;98635.72;;;22.39;30.55
73171;BME280;61381;50.118;19.962;2023-05-11T12:38:00;98631.97;;;21.57;30.88
73171;BME280;61381;50.118;19.962;2023-05-11T12:43:02;98629.03;;;21.17;30.21
73171;BME280;61381;50.118;19.962;2023-05-11T12:48:04;98612.94;;;21.44;32.45
73171;BME280;61381;50.118;19.962;2023-05-11T12:53:14;98616.94;;;22.37;30.78
73171;BME280;61381;50.118;19.962;2023-05-11T12:58:16;98612.13;;;22.31;31.02
73171;BME280;61381;50.118;19.962;2023-05-11T13:03:20;98608.72;;;21.63;31.61
73171;BME280;61381;50.118;19.962;2023-05-11T13:08:22;98618.78;;;22.14;30.02
73171;BME280;61381;50.118;19.962;2023-05-11T15:22:11;98552.78;;;20.41;32.12
73171;BME280;61381;50.118;19.962;2023-05-11T15:27:12;98549.41;;;20.76;31.73
73171;BME280;61381;50.118;19.962;2023-05-11T15:32:13;98554.91;;;20.64;34.47
73171;BME280;61381;50.118;19.962;2023-05-11T15:37:17;98550.81;;;19.98;35.79
73171;BME280;61381;50.118;19.962;2023-05-11T15:42:18;98547.66;;;20.40;36.19
73171;BME280;61381;50.118;19.962;2023-05-11T15:47:23;98549.94;;;20.22;35.38
73171;BME280;61381;50.118;19.962;2023-05-11T15:52:25;98550.41;;;19.83;34.76
73171;BME280;61381;50.118;19.962;2023-05-11T15:57:26;98547.56;;;19.67;35.13
73171;BME280;61381;50.118;19.962;2023-05-11T16:02:27;98546.13;;;19.57;35.96
73171;BME280;61381;50.118;19.962;2023-05-11T16:07:29;98551.88;;;19.68;35.53
73171;BME280;61381;50.118;19.962;2023-05-11T16:12:31;98553.03;;;19.55;36.01
73171;BME280;61381;50.118;19.962;2023-05-11T16:17:32;98552.28;;;19.42;36.14
73171;BME280;61381;50.118;19.962;2023-05-11T16:22:34;98546.06;;;19.17;37.12
73171;BME280;61381;50.118;19.962;2023-05-11T16:27:35;98555.44;;;19.19;37.12
73171;BME280;61381;50.118;19.962;2023-05-11T16:32:36;98559.63;;;19.17;36.77
73171;BME280;61381;50.118;19.962;2023-05-11T16:37:38;98556.22;;;19.20;36.64
73171;BME280;61381;50.118;19.962;2023-05-11T16:42:39;98553.31;;;19.13;36.62
73171;BME280;61381;50.118;19.962;2023-05-11T16:47:41;98562.25;;;19.01;38.22
73171;BME280;61381;50.118;19.962;2023-05-11T16:52:43;98557.16;;;18.53;39.66
73171;BME280;61381;50.118;19.962;2023-05-11T16:57:44;98565.06;;;18.25;41.07
73171;BME280;61381;50.118;19.962;2023-05-11T17:02:46;98559.69;;;18.04;41.22
73171;BME280;61381;50.118;19.962;2023-05-11T17:07:48;98565.47;;;18.03;42.25
73171;BME280;61381;50.118;19.962;2023-05-11T17:12:49;98560.09;;;17.94;42.18
73171;BME280;61381;50.118;19.962;2023-05-11T17:17:51;98582.44;;;17.91;41.93
73171;BME280;61381;50.118;19.962;2023-05-11T17:22:53;98574.16;;;17.87;43.20
73171;BME280;61381;50.118;19.962;2023-05-11T17:27:54;98565.19;;;17.65;44.34
73171;BME280;61381;50.118;19.962;2023-05-11T17:32:55;98565.78;;;17.50;43.69
73171;BME280;61381;50.118;19.962;2023-05-11T17:37:58;98571.31;;;17.33;44.58
73171;BME280;61381;50.118;19.962;2023-05-11T17:42:59;98573.66;;;17.04;45.08
73171;BME280;61381;50.118;19.962;2023-05-11T17:48:00;98582.78;;;16.82;45.44
73171;BME280;61381;50.118;19.962;2023-05-11T17:53:02;98576.16;;;16.71;46.10
73171;BME280;61381;50.118;19.962;2023-05-11T17:58:03;98587.50;;;16.55;46.79
73171;BME280;61381;50.118;19.962;2023-05-11T18:03:05;98594.19;;;16.23;47.92
73171;BME280;61381;50.118;19.962;2023-05-11T18:08:07;98592.63;;;15.96;49.04
73171;BME280;61381;50.118;19.962;2023-05-11T18:13:08;98592.41;;;15.75;49.91
73171;BME280;61381;50.118;19.962;2023-05-11T18:18:10;98598.06;;;15.56;50.86
73171;BME280;61381;50.118;19.962;2023-05-11T18:23:12;98592.97;;;15.45;51.23
73171;BME280;61381;50.118;19.962;2023-05-11T18:28:13;98620.72;;;15.28;52.53
73171;BME280;61381;50.118;19.962;2023-05-11T18:33:14;98618.72;;;15.11;53.23
73171;BME280;61381;50.118;19.962;2023-05-11T18:38:17;98628.50;;;14.98;54.00
73171;BME280;61381;50.118;19.962;2023-05-11T18:43:18;98621.06;;;14.73;55.05
73171;BME280;61381;50.118;19.962;2023-05-11T18:48:19;98633.81;;;14.58;56.05
73171;BME280;61381;50.118;19.962;2023-05-11T18:53:21;98624.88;;;14.49;56.72
73171;BME280;61381;50.118;19.962;2023-05-11T18:58:23;98644.56;;;14.36;57.09
73171;BME280;61381;50.118;19.962;2023-05-11T19:03:24;98649.16;;;14.13;58.21
73171;BME280;61381;50.118;19.962;2023-05-11T19:08:26;98646.97;;;14.01;58.79
73171;BME280;61381;50.118;19.962;2023-05-11T19:13:27;98655.28;;;13.90;59.30
73171;BME280;61381;50.118;19.962;2023-05-11T19:18:28;98660.47;;;13.87;59.26
73171;BME280;61381;50.118;19.962;2023-05-11T19:23:31;98651.50;;;13.78;59.23
73171;BME280;61381;50.118;19.962;2023-05-11T19:28:32;98661.19;;;13.79;58.65
73171;BME280;61381;50.118;19.962;2023-05-11T19:33:33;98665.28;;;13.62;59.33
73171;BME280;61381;50.118;19.962;2023-05-11T19:38:35;98673.53;;;13.52;58.96
73171;BME280;61381;50.118;19.962;2023-05-11T19:43:36;98673.06;;;13.50;58.83
73171;BME280;61381;50.118;19.962;2023-05-11T19:48:38;98666.78;;;13.41;58.90
73171;BME280;61381;50.118;19.962;2023-05-11T19:53:40;98670.72;;;13.29;58.88
73171;BME280;61381;50.118;19.962;2023-05-11T19:58:41;98676.09;;;13.29;58.48
73171;BME280;61381;50.118;19.962;2023-05-11T20:03:42;98674.19;;;13.16;58.82
73171;BME280;61381;50.118;19.962;2023-05-11T20:08:44;98673.97;;;13.12;58.65
73171;BME280;61381;50.118;19.962;2023-05-11T20:13:45;98681.63;;;13.05;59.28
73171;BME280;61381;50.118;19.962;2023-05-11T20:18:46;98685.53;;;12.80;59.78
73171;BME280;61381;50.118;19.962;2023-05-11T20:23:49;98686.06;;;12.82;59.67
73171;BME280;61381;50.118;19.962;2023-05-11T20:28:50;98681.56;;;12.77;59.51
73171;BME280;61381;50.118;19.962;2023-05-11T20:33:51;98678.31;;;12.61;59.84
73171;BME280;61381;50.118;19.962;2023-05-11T20:38:53;98681.91;;;12.38;62.00
73171;BME280;61381;50.118;19.962;2023-05-11T20:43:54;98683.13;;;12.26;61.21
73171;BME280;61381;50.118;19.962;2023-05-11T20:48:55;98678.19;;;12.34;60.70
73171;BME280;61381;50.118;19.962;2023-05-11T20:53:58;98678.41;;;12.18;61.51
73171;BME280;61381;50.118;19.962;2023-05-11T20:58:59;98679.84;;;12.10;61.56
73171;BME280;61381;50.118;19.962;2023-05-11T21:04:00;98678.69;;;11.98;62.23
73171;BME280;61381;50.118;19.962;2023-05-11T21:09:02;98682.97;;;11.99;62.12
73171;BME280;61381;50.118;19.962;2023-05-11T21:14:03;98673.47;;;11.82;63.10
73171;BME280;61381;50.118;19.962;2023-05-11T21:19:05;98681.59;;;11.77;62.69
73171;BME280;61381;50.118;19.962;2023-05-11T21:24:07;98679.84;;;11.67;63.26
73171;BME280;61381;50.118;19.962;2023-05-11T21:29:08;98689.19;;;11.70;63.16
73171;BME280;61381;50.118;19.962;2023-05-11T21:34:11;98678.59;;;11.59;63.71
73171;BME280;61381;50.118;19.962;2023-05-11T21:39:13;98688.66;;;11.43;64.48
73171;BME280;61381;50.118;19.962;2023-05-11T21:44:14;98688.81;;;11.33;65.21
73171;BME280;61381;50.118;19.962;2023-05-11T21:49:15;98686.69;;;11.30;65.29
73171;BME280;61381;50.118;19.962;2023-05-11T21:54:18;98677.81;;;11.30;64.88
73171;BME280;61381;50.118;19.962;2023-05-11T21:59:21;98682.47;;;11.24;65.16
73171;BME280;61381;50.118;19.962;2023-05-11T22:04:22;98690.88;;;11.12;65.77
73171;BME280;61381;50.118;19.962;2023-05-11T22:09:25;98683.47;;;10.99;66.76
73171;BME280;61381;50.118;19.962;2023-05-11T22:14:26;98678.19;;;10.94;67.30
73171;BME280;61381;50.118;19.962;2023-05-11T22:19:29;98687.22;;;10.68;68.54
73171;BME280;61381;50.118;19.962;2023-05-11T22:24:32;98694.47;;;10.68;69.05
73171;BME280;61381;50.118;19.962;2023-05-11T22:29:34;98691.28;;;10.61;69.13
73171;BME280;61381;50.118;19.962;2023-05-11T22:34:35;98689.16;;;10.58;69.30
73171;BME280;61381;50.118;19.962;2023-05-11T22:39:38;98691.34;;;10.50;70.14
73171;BME280;61381;50.118;19.962;2023-05-11T22:44:41;98697.88;;;10.39;70.58
73171;BME280;61381;50.118;19.962;2023-05-11T22:49:42;98702.22;;;10.25;71.47
73171;BME280;61381;50.118;19.962;2023-05-11T22:54:44;98686.94;;;10.25;71.29
73171;BME280;61381;50.118;19.962;2023-05-11T22:59:48;98698.25;;;10.17;71.99
73171;BME280;61381;50.118;19.962;2023-05-11T23:04:49;98693.44;;;10.14;72.05
73171;BME280;61381;50.118;19.962;2023-05-11T23:09:54;98694.22;;;10.14;72.30
73171;BME280;61381;50.118;19.962;2023-05-11T23:14:55;98688.38;;;10.12;71.85
73171;BME280;61381;50.118;19.962;2023-05-11T23:19:56;98677.97;;;10.00;73.17
73171;BME280;61381;50.118;19.962;2023-05-11T23:24:58;98679.81;;;10.05;72.29
73171;BME280;61381;50.118;19.962;2023-05-11T23:29:59;98688.41;;;10.02;72.46
73171;BME280;61381;50.118;19.962;2023-05-11T23:35:00;98684.94;;;9.96;72.61
73171;BME280;61381;50.118;19.962;2023-05-11T23:40:07;98677.47;;;9.93;72.71
73171;BME280;61381;50.118;19.962;2023-05-11T23:45:09;98687.41;;;9.88;73.43
73171;BME280;61381;50.118;19.962;2023-05-11T23:50:10;98686.63;;;9.82;73.77
73171;BME280;61381;50.118;19.962;2023-05-11T23:55:13;98679.44;;;9.77;74.17
